Tan-shui, Taiwan
Current Conditions -  °F | °C
As of 12:00 AM on Saturday 25 Oct 2014 (Local Time) from RCSS Reporting Station
Broken Clouds Broken Clouds  
Wind Chill: 73°   Ceiling: 4500
Heat Index: 73°   Visibility: 6mi
Dew Point: 66°   Wind: 10mph
Humidity: 78%   Direction: 100°E
Pressure: 30.03"   Gusts: NA
Location:  25.17°N, 121.43°E
Report Text: RCSS 241600Z 10009KT 9999 FEW030 BKN045 23/19 Q1017 NOSIGRMK A3005
Loading
Personal Weather Stations






























Interactive Weather Map
Tropical Storm Tracking
New forecast layout! Learn more

10-Day Weather Forecast

Advertisements
Track Severe Weather on mobile